Time;durP1;ratioP1;P1;durP2;ratioP2;P2;SDS_P1;SDS_P2;PMS_P1;PMS_P2;Temp;Humidity;BMP_temperature;BMP_pressure;BME280_temperature;BME280_humidity;BME280_pressure;Samples;Min_cycle;Max_cycle;Signal;HPM_P1;HPM_P2
2023/01/07 00:02:19;;;;;;;1.08;0.77;;;;;;;;;;5026766;28;20021;-78
2023/01/07 00:04:45;;;;;;;2.30;1.13;;;;;;;;;;5025459;28;20037;-78
2023/01/07 00:07:11;;;;;;;1.23;0.80;;;;;;;;;;5027447;28;20388;-78
2023/01/07 00:09:37;;;;;;;1.05;0.80;;;;;;;;;;5026274;28;20037;-78
2023/01/07 00:12:03;;;;;;;1.05;0.95;;;;;;;;;;5025753;28;20258;-78
2023/01/07 00:14:28;;;;;;;1.00;0.80;;;;;;;;;;5029238;28;20029;-78
2023/01/07 00:16:54;;;;;;;1.55;0.90;;;;;;;;;;5029205;28;20451;-78
2023/01/07 00:19:21;;;;;;;0.80;0.80;;;;;;;;;;5041104;28;20508;-78
2023/01/07 00:21:47;;;;;;;1.20;1.02;;;;;;;;;;5035149;28;20095;-78
2023/01/07 00:24:13;;;;;;;2.38;1.10;;;;;;;;;;5044391;28;20211;-78
2023/01/07 00:26:42;;;;;;;1.10;1.00;;;;;;;;;;5029071;28;20571;-78
2023/01/07 00:29:08;;;;;;;0.90;0.82;;;;;;;;;;5031651;28;20025;-78
2023/01/07 00:31:35;;;;;;;0.85;0.85;;;;;;;;;;5023609;28;20025;-78
2023/01/07 00:36:29;;;;;;;0.88;0.85;;;;;;;;;;5038786;28;20042;-78
2023/01/07 00:38:56;;;;;;;2.50;1.00;;;;;;;;;;5024705;28;20079;-78
2023/01/07 00:41:22;;;;;;;1.70;1.00;;;;;;;;;;5041243;28;20018;-78
2023/01/07 00:43:48;;;;;;;0.90;0.75;;;;;;;;;;5030033;28;20029;-78
2023/01/07 00:46:14;;;;;;;1.23;0.60;;;;;;;;;;5038602;28;20033;-78
2023/01/07 00:48:41;;;;;;;1.13;0.70;;;;;;;;;;5030751;28;20789;-78
2023/01/07 00:51:09;;;;;;;0.73;0.73;;;;;;;;;;5030806;28;20051;-78
2023/01/07 00:53:40;;;;;;;1.30;1.00;;;;;;;;;;5030239;28;20419;-78
2023/01/07 00:56:06;;;;;;;0.85;0.85;;;;;;;;;;5028213;28;20092;-79
2023/01/07 00:58:32;;;;;;;1.00;0.90;;;;;;;;;;5030151;28;20030;-79
2023/01/07 01:01:00;;;;;;;1.33;1.05;;;;;;;;;;5019161;28;20104;-78
2023/01/07 01:03:26;;;;;;;0.82;0.82;;;;;;;;;;5028402;28;20033;-78
2023/01/07 01:05:53;;;;;;;1.52;0.88;;;;;;;;;;5029766;28;20036;-78
2023/01/07 01:08:20;;;;;;;1.00;0.90;;;;;;;;;;5029208;28;20033;-78
2023/01/07 01:10:46;;;;;;;1.38;1.00;;;;;;;;;;5029126;28;20080;-78
2023/01/07 01:13:17;;;;;;;1.15;0.80;;;;;;;;;;5037812;28;20038;-78
2023/01/07 01:15:44;;;;;;;0.95;0.93;;;;;;;;;;5030184;28;20025;-78
2023/01/07 01:18:10;;;;;;;1.80;0.73;;;;;;;;;;5029277;28;20675;-78
2023/01/07 01:20:36;;;;;;;0.85;0.80;;;;;;;;;;5030380;28;20035;-77
2023/01/07 01:23:02;;;;;;;1.63;0.88;;;;;;;;;;5026272;28;20053;-78
2023/01/07 01:25:28;;;;;;;0.95;0.88;;;;;;;;;;5027021;28;20154;-77
2023/01/07 01:27:54;;;;;;;0.90;0.90;;;;;;;;;;5040107;28;20032;-78
2023/01/07 01:30:20;;;;;;;1.30;0.90;;;;;;;;;;5028932;28;20025;-78
2023/01/07 01:32:46;;;;;;;0.82;0.80;;;;;;;;;;5027299;28;20124;-78
2023/01/07 01:35:12;;;;;;;1.00;0.85;;;;;;;;;;5036704;28;20448;-78
2023/01/07 01:37:38;;;;;;;1.30;0.85;;;;;;;;;;5028869;28;20030;-78
2023/01/07 01:40:05;;;;;;;1.27;0.93;;;;;;;;;;5039280;28;20025;-78
2023/01/07 01:42:31;;;;;;;0.82;0.80;;;;;;;;;;5026637;28;20075;-78
2023/01/07 01:44:59;;;;;;;0.80;0.80;;;;;;;;;;5028221;28;20025;-78
2023/01/07 01:47:32;;;;;;;1.27;0.80;;;;;;;;;;5027813;28;20021;-78
2023/01/07 01:50:04;;;;;;;0.80;0.73;;;;;;;;;;5028132;28;20053;-78
2023/01/07 01:52:44;;;;;;;1.90;0.95;;;;;;;;;;5028077;28;20032;-78
2023/01/07 01:55:11;;;;;;;1.10;0.90;;;;;;;;;;5021487;28;20552;-78
2023/01/07 01:57:38;;;;;;;1.38;1.00;;;;;;;;;;5029424;28;20113;-78
2023/01/07 02:00:04;;;;;;;1.00;0.90;;;;;;;;;;5033639;28;20383;-78
2023/01/07 02:02:35;;;;;;;0.90;0.90;;;;;;;;;;5026187;28;20033;-78
2023/01/07 02:05:02;;;;;;;0.80;0.80;;;;;;;;;;5028239;28;20125;-78
2023/01/07 02:07:28;;;;;;;1.15;0.77;;;;;;;;;;5031857;28;20029;-78
2023/01/07 02:10:09;;;;;;;1.85;0.68;;;;;;;;;;5027533;28;20021;-77
2023/01/07 02:12:53;;;;;;;0.95;0.90;;;;;;;;;;5030879;28;20037;-78
2023/01/07 02:15:26;;;;;;;0.80;0.80;;;;;;;;;;5040006;28;20029;-77
2023/01/07 02:18:14;;;;;;;0.85;0.82;;;;;;;;;;5033753;28;20030;-78
2023/01/07 02:20:43;;;;;;;1.63;0.90;;;;;;;;;;5024902;28;20025;-78
2023/01/07 02:23:26;;;;;;;1.33;0.85;;;;;;;;;;5025554;28;20025;-77
2023/01/07 02:26:13;;;;;;;1.40;1.00;;;;;;;;;;5025594;28;20030;-78
2023/01/07 02:29:03;;;;;;;1.50;0.70;;;;;;;;;;5027589;28;20030;-78
2023/01/07 02:31:44;;;;;;;0.98;0.80;;;;;;;;;;5027723;28;20021;-78
2023/01/07 02:34:14;;;;;;;0.93;0.82;;;;;;;;;;5027071;28;20033;-78
2023/01/07 02:36:54;;;;;;;2.97;0.90;;;;;;;;;;5033270;28;20041;-78
2023/01/07 02:39:38;;;;;;;1.05;0.95;;;;;;;;;;5033708;28;20033;-78
2023/01/07 02:42:08;;;;;;;1.05;0.90;;;;;;;;;;5027268;28;20508;-78
2023/01/07 02:44:38;;;;;;;1.17;1.00;;;;;;;;;;5026182;28;20033;-78
2023/01/07 02:47:23;;;;;;;1.23;0.82;;;;;;;;;;5028330;28;20061;-78
2023/01/07 02:49:49;;;;;;;0.98;0.90;;;;;;;;;;5030938;28;20033;-78
2023/01/07 02:52:21;;;;;;;0.75;0.75;;;;;;;;;;5028106;28;20035;-78
2023/01/07 02:54:49;;;;;;;1.13;0.80;;;;;;;;;;5029398;28;20245;-78
2023/01/07 02:57:34;;;;;;;1.23;0.93;;;;;;;;;;5027696;28;20100;-78
2023/01/07 03:00:18;;;;;;;1.50;0.98;;;;;;;;;;5027892;28;20436;-78
2023/01/07 03:02:44;;;;;;;0.63;0.63;;;;;;;;;;5028894;28;20530;-78
2023/01/07 03:05:29;;;;;;;1.30;1.05;;;;;;;;;;5030069;28;20033;-78
2023/01/07 03:08:15;;;;;;;0.80;0.80;;;;;;;;;;5027064;28;20034;-78
2023/01/07 03:10:51;;;;;;;0.70;0.70;;;;;;;;;;5018102;28;20025;-78
2023/01/07 03:13:19;;;;;;;1.17;0.95;;;;;;;;;;5027699;28;20033;-78
2023/01/07 03:15:53;;;;;;;0.82;0.77;;;;;;;;;;5024752;28;20029;-77
2023/01/07 03:18:27;;;;;;;0.80;0.80;;;;;;;;;;5026893;28;20021;-77
2023/01/07 03:20:59;;;;;;;0.75;0.70;;;;;;;;;;5024897;28;20132;-78
2023/01/07 03:23:26;;;;;;;0.77;0.68;;;;;;;;;;5026516;28;20476;-78
2023/01/07 03:25:52;;;;;;;1.05;0.70;;;;;;;;;;5026662;28;20036;-77
2023/01/07 03:28:21;;;;;;;1.10;0.80;;;;;;;;;;5025355;28;20025;-77
2023/01/07 03:30:47;;;;;;;0.80;0.80;;;;;;;;;;5027196;28;20151;-78
2023/01/07 03:33:22;;;;;;;0.77;0.77;;;;;;;;;;5026362;28;20051;-78
2023/01/07 03:35:51;;;;;;;1.83;0.93;;;;;;;;;;5024007;28;20046;-78
2023/01/07 03:38:18;;;;;;;1.48;0.90;;;;;;;;;;5028137;28;20088;-78
2023/01/07 03:40:44;;;;;;;0.90;0.90;;;;;;;;;;5030970;28;20037;-78
2023/01/07 03:43:13;;;;;;;0.70;0.70;;;;;;;;;;5027739;28;20581;-78
2023/01/07 03:45:39;;;;;;;0.70;0.70;;;;;;;;;;5026632;28;20068;-78
2023/01/07 03:48:06;;;;;;;0.77;0.70;;;;;;;;;;5027160;28;20592;-78
2023/01/07 03:50:32;;;;;;;1.08;0.98;;;;;;;;;;5030683;28;20163;-78
2023/01/07 03:52:58;;;;;;;1.42;0.70;;;;;;;;;;5030552;28;20026;-78
2023/01/07 03:55:24;;;;;;;0.75;0.75;;;;;;;;;;5031352;28;20430;-78
2023/01/07 03:57:50;;;;;;;1.23;0.73;;;;;;;;;;5032209;28;20424;-77
2023/01/07 04:00:16;;;;;;;0.65;0.65;;;;;;;;;;5031887;28;20172;-78
2023/01/07 04:02:42;;;;;;;0.65;0.65;;;;;;;;;;5060891;28;20018;-78
2023/01/07 04:05:09;;;;;;;1.45;0.85;;;;;;;;;;5030407;28;20029;-78
2023/01/07 04:07:34;;;;;;;1.65;0.90;;;;;;;;;;5036198;28;20056;-78
2023/01/07 04:10:00;;;;;;;1.02;0.77;;;;;;;;;;5028553;28;20147;-78
2023/01/07 04:12:26;;;;;;;2.05;1.08;;;;;;;;;;5020351;28;20408;-78
2023/01/07 04:14:53;;;;;;;0.90;0.60;;;;;;;;;;5031485;28;20259;-77
2023/01/07 04:17:19;;;;;;;1.00;0.70;;;;;;;;;;5033438;28;20391;-78
2023/01/07 04:19:45;;;;;;;0.98;0.77;;;;;;;;;;5034541;28;20527;-78
2023/01/07 04:22:11;;;;;;;1.08;0.70;;;;;;;;;;5029478;28;20021;-78
2023/01/07 04:24:37;;;;;;;0.82;0.80;;;;;;;;;;5031947;28;20048;-78
2023/01/07 04:27:03;;;;;;;0.75;0.60;;;;;;;;;;5032132;28;20439;-78
2023/01/07 04:29:29;;;;;;;0.80;0.80;;;;;;;;;;5027286;28;20035;-78
2023/01/07 04:31:55;;;;;;;1.00;0.90;;;;;;;;;;5031649;28;20511;-78
2023/01/07 04:34:21;;;;;;;0.98;0.73;;;;;;;;;;5026643;28;20041;-77
2023/01/07 04:36:47;;;;;;;0.60;0.60;;;;;;;;;;5022366;28;20556;-79
2023/01/07 04:39:14;;;;;;;1.30;0.90;;;;;;;;;;5023878;28;20030;-78
2023/01/07 04:41:40;;;;;;;0.98;0.77;;;;;;;;;;5036742;28;20049;-79
2023/01/07 04:44:06;;;;;;;0.75;0.70;;;;;;;;;;5031128;28;20040;-79
2023/01/07 04:46:32;;;;;;;1.05;0.77;;;;;;;;;;5032385;28;20526;-79
2023/01/07 04:48:58;;;;;;;0.80;0.80;;;;;;;;;;5030266;28;20029;-78
2023/01/07 04:51:24;;;;;;;1.23;0.80;;;;;;;;;;5034281;28;20120;-78
2023/01/07 04:53:50;;;;;;;0.80;0.80;;;;;;;;;;5030543;28;20029;-79
2023/01/07 04:56:16;;;;;;;1.10;1.00;;;;;;;;;;5030489;28;20018;-79
2023/01/07 04:58:42;;;;;;;0.65;0.65;;;;;;;;;;5028848;28;20400;-78
2023/01/07 05:01:08;;;;;;;0.77;0.77;;;;;;;;;;5029271;28;20452;-79
2023/01/07 05:03:34;;;;;;;0.65;0.65;;;;;;;;;;5042385;28;20032;-79
2023/01/07 05:06:00;;;;;;;0.88;0.80;;;;;;;;;;5029365;28;20034;-79
2023/01/07 05:08:27;;;;;;;0.63;0.63;;;;;;;;;;5029697;28;20552;-79
2023/01/07 05:10:53;;;;;;;1.02;0.70;;;;;;;;;;5028492;28;20495;-79
2023/01/07 05:13:21;;;;;;;0.60;0.60;;;;;;;;;;5031046;28;20033;-79
2023/01/07 05:15:47;;;;;;;0.70;0.70;;;;;;;;;;5029307;28;20037;-79
2023/01/07 05:18:13;;;;;;;0.60;0.60;;;;;;;;;;5028907;28;20025;-79
2023/01/07 05:20:39;;;;;;;1.50;1.00;;;;;;;;;;5030993;28;20025;-78
2023/01/07 05:23:05;;;;;;;0.77;0.73;;;;;;;;;;5026852;28;20041;-79
2023/01/07 05:25:32;;;;;;;1.17;0.88;;;;;;;;;;5029433;28;20079;-79
2023/01/07 05:27:58;;;;;;;0.85;0.80;;;;;;;;;;5032924;28;20033;-78
2023/01/07 05:30:24;;;;;;;0.68;0.68;;;;;;;;;;5029052;28;20446;-79
2023/01/07 05:32:50;;;;;;;0.70;0.70;;;;;;;;;;5036377;28;20041;-78
2023/01/07 05:35:16;;;;;;;3.35;0.80;;;;;;;;;;5019400;28;20045;-79
2023/01/07 05:37:45;;;;;;;0.88;0.70;;;;;;;;;;5040171;28;20022;-79
2023/01/07 05:40:11;;;;;;;0.80;0.77;;;;;;;;;;5030307;28;20716;-79
2023/01/07 05:42:37;;;;;;;0.80;0.70;;;;;;;;;;5033728;28;20522;-79
2023/01/07 05:45:04;;;;;;;1.83;1.00;;;;;;;;;;5036071;28;20518;-79
2023/01/07 05:47:30;;;;;;;1.17;0.90;;;;;;;;;;5027807;28;20081;-78
2023/01/07 05:49:55;;;;;;;0.90;0.90;;;;;;;;;;5042258;28;20017;-79
2023/01/07 05:52:21;;;;;;;1.33;1.00;;;;;;;;;;5028883;28;20492;-78
2023/01/07 05:54:47;;;;;;;1.00;0.90;;;;;;;;;;5033997;28;20052;-79
2023/01/07 05:57:13;;;;;;;1.50;0.80;;;;;;;;;;5030938;28;20025;-79
2023/01/07 05:59:39;;;;;;;0.60;0.60;;;;;;;;;;5029626;28;20028;-78
2023/01/07 06:02:05;;;;;;;0.70;0.70;;;;;;;;;;5034539;28;20029;-78
2023/01/07 06:04:33;;;;;;;1.15;0.80;;;;;;;;;;5028969;28;20412;-78
2023/01/07 06:06:58;;;;;;;1.00;0.80;;;;;;;;;;5036901;28;20037;-78
2023/01/07 06:09:24;;;;;;;0.65;0.65;;;;;;;;;;5027046;28;20411;-78
2023/01/07 06:11:50;;;;;;;1.65;0.73;;;;;;;;;;5028971;28;20033;-79
2023/01/07 06:14:16;;;;;;;1.15;0.98;;;;;;;;;;5027504;28;20495;-79
2023/01/07 06:16:42;;;;;;;0.80;0.80;;;;;;;;;;5027782;28;20080;-79
2023/01/07 06:19:09;;;;;;;1.88;0.90;;;;;;;;;;5028960;28;20033;-79
2023/01/07 06:21:35;;;;;;;1.08;0.90;;;;;;;;;;5027371;28;20041;-79
2023/01/07 06:24:01;;;;;;;1.02;0.93;;;;;;;;;;5032439;28;20087;-79
2023/01/07 06:26:27;;;;;;;0.95;0.82;;;;;;;;;;5028522;28;20041;-79
2023/01/07 06:28:53;;;;;;;0.85;0.85;;;;;;;;;;5027878;28;20026;-79
2023/01/07 06:31:19;;;;;;;0.93;0.82;;;;;;;;;;5029131;28;20524;-78
2023/01/07 06:33:45;;;;;;;1.20;0.80;;;;;;;;;;5028813;28;20376;-79
2023/01/07 06:36:11;;;;;;;0.73;0.73;;;;;;;;;;5025135;28;20044;-79
2023/01/07 06:38:37;;;;;;;0.80;0.80;;;;;;;;;;5039376;28;20025;-79
2023/01/07 06:41:03;;;;;;;1.17;0.95;;;;;;;;;;5029405;28;20582;-79
2023/01/07 06:43:29;;;;;;;0.70;0.70;;;;;;;;;;5029590;28;20030;-78
2023/01/07 06:45:55;;;;;;;1.55;0.90;;;;;;;;;;5023071;28;20084;-79
2023/01/07 06:48:21;;;;;;;0.73;0.73;;;;;;;;;;5033657;28;20025;-78
2023/01/07 06:50:47;;;;;;;0.85;0.80;;;;;;;;;;5027914;28;20029;-78
2023/01/07 06:53:13;;;;;;;2.67;1.08;;;;;;;;;;5026682;28;20502;-79
2023/01/07 06:55:39;;;;;;;0.98;0.90;;;;;;;;;;5027606;28;20400;-79
2023/01/07 06:58:05;;;;;;;1.10;1.00;;;;;;;;;;5026548;28;20041;-79
2023/01/07 07:00:31;;;;;;;1.25;0.75;;;;;;;;;;5032277;28;20093;-79
2023/01/07 07:02:57;;;;;;;0.88;0.88;;;;;;;;;;5024034;28;20419;-79
2023/01/07 07:05:23;;;;;;;0.57;0.57;;;;;;;;;;5028164;28;20033;-79
2023/01/07 07:07:49;;;;;;;3.22;0.80;;;;;;;;;;5026623;28;20017;-79
2023/01/07 07:10:15;;;;;;;0.73;0.70;;;;;;;;;;5028417;28;20396;-79
2023/01/07 07:12:41;;;;;;;0.73;0.70;;;;;;;;;;5030045;28;20112;-80
2023/01/07 07:15:08;;;;;;;0.82;0.70;;;;;;;;;;5025654;28;20083;-78
2023/01/07 07:17:34;;;;;;;0.60;0.60;;;;;;;;;;5033371;28;20029;-79
2023/01/07 07:20:00;;;;;;;0.77;0.77;;;;;;;;;;5029584;28;20534;-78
2023/01/07 07:22:26;;;;;;;0.70;0.63;;;;;;;;;;5047035;28;20029;-79
2023/01/07 07:24:52;;;;;;;0.70;0.70;;;;;;;;;;5032133;28;20621;-78
2023/01/07 07:27:18;;;;;;;1.05;0.70;;;;;;;;;;5032510;28;20404;-78
2023/01/07 07:29:44;;;;;;;1.33;0.82;;;;;;;;;;5030690;28;20036;-78
2023/01/07 07:32:10;;;;;;;0.77;0.77;;;;;;;;;;5028730;28;20033;-79
2023/01/07 07:34:36;;;;;;;1.08;0.77;;;;;;;;;;5037109;28;20400;-78
2023/01/07 07:37:02;;;;;;;2.13;0.93;;;;;;;;;;5028982;28;20037;-78
2023/01/07 07:39:28;;;;;;;1.05;0.70;;;;;;;;;;5032340;28;20053;-79
2023/01/07 07:41:54;;;;;;;1.00;0.90;;;;;;;;;;5036847;28;20025;-78
2023/01/07 07:44:20;;;;;;;0.60;0.60;;;;;;;;;;5038426;28;20508;-78
2023/01/07 07:46:46;;;;;;;0.52;0.52;;;;;;;;;;5030073;28;20026;-78
2023/01/07 07:49:12;;;;;;;1.10;0.82;;;;;;;;;;5032427;28;20091;-78
2023/01/07 07:51:38;;;;;;;1.48;0.68;;;;;;;;;;5037059;28;20021;-78
2023/01/07 07:54:04;;;;;;;0.90;0.70;;;;;;;;;;5039125;28;20056;-78
2023/01/07 07:56:30;;;;;;;0.70;0.70;;;;;;;;;;5031304;28;20211;-79
2023/01/07 07:58:56;;;;;;;0.68;0.68;;;;;;;;;;5036819;28;20030;-79
2023/01/07 08:01:21;;;;;;;0.68;0.68;;;;;;;;;;5030047;28;20083;-78
2023/01/07 08:03:47;;;;;;;1.15;0.80;;;;;;;;;;5031215;28;20041;-79
2023/01/07 08:06:13;;;;;;;0.60;0.60;;;;;;;;;;5030580;28;20021;-79
2023/01/07 08:08:39;;;;;;;1.75;0.80;;;;;;;;;;5031261;28;20492;-79
2023/01/07 08:11:05;;;;;;;0.60;0.60;;;;;;;;;;5029421;28;20671;-79
2023/01/07 08:13:31;;;;;;;0.70;0.70;;;;;;;;;;5030174;28;20037;-76
2023/01/07 08:15:57;;;;;;;0.73;0.70;;;;;;;;;;5035191;28;20022;-76
2023/01/07 08:18:24;;;;;;;0.98;0.70;;;;;;;;;;5038462;28;20026;-76
2023/01/07 08:20:50;;;;;;;1.23;0.90;;;;;;;;;;5034171;28;20033;-76
2023/01/07 08:23:16;;;;;;;0.70;0.70;;;;;;;;;;5044678;28;20032;-76
2023/01/07 08:25:42;;;;;;;1.65;0.70;;;;;;;;;;5037584;28;20033;-76
2023/01/07 08:28:09;;;;;;;1.95;0.80;;;;;;;;;;5038000;28;20121;-77
2023/01/07 08:30:35;;;;;;;0.68;0.60;;;;;;;;;;5029264;28;20021;-76
2023/01/07 08:33:03;;;;;;;0.70;0.63;;;;;;;;;;5037074;28;20059;-76
2023/01/07 08:35:29;;;;;;;0.75;0.60;;;;;;;;;;5030390;28;20041;-76
2023/01/07 08:38:02;;;;;;;5.65;0.95;;;;;;;;;;5032514;28;20038;-76
2023/01/07 08:40:28;;;;;;;0.80;0.80;;;;;;;;;;5029492;28;20029;-77
2023/01/07 08:42:57;;;;;;;0.70;0.70;;;;;;;;;;5036753;28;20475;-72
2023/01/07 08:45:23;;;;;;;0.93;0.68;;;;;;;;;;5037749;28;20107;-72
2023/01/07 08:47:49;;;;;;;1.02;0.82;;;;;;;;;;5027475;28;20117;-73
2023/01/07 08:50:15;;;;;;;0.82;0.80;;;;;;;;;;5038466;28;20032;-73
2023/01/07 08:52:41;;;;;;;1.00;0.90;;;;;;;;;;5032965;28;20441;-72
2023/01/07 08:55:07;;;;;;;1.20;1.10;;;;;;;;;;5034361;28;20086;-74
2023/01/07 08:57:33;;;;;;;0.80;0.75;;;;;;;;;;5031273;28;20029;-74
2023/01/07 08:59:59;;;;;;;1.05;0.90;;;;;;;;;;5029026;28;20384;-74
2023/01/07 09:02:25;;;;;;;1.55;0.88;;;;;;;;;;5038332;28;20498;-74
2023/01/07 09:04:51;;;;;;;1.00;0.90;;;;;;;;;;5026910;28;20708;-75
2023/01/07 09:07:17;;;;;;;1.85;1.35;;;;;;;;;;5029744;28;20088;-75
2023/01/07 09:09:43;;;;;;;1.00;0.90;;;;;;;;;;5027894;28;20041;-72
2023/01/07 09:12:09;;;;;;;1.08;0.80;;;;;;;;;;5029926;28;20074;-73
2023/01/07 09:14:35;;;;;;;1.02;0.80;;;;;;;;;;5037832;28;20103;-73
2023/01/07 09:17:01;;;;;;;0.90;0.90;;;;;;;;;;5021593;28;20016;-74
2023/01/07 09:19:27;;;;;;;1.27;0.95;;;;;;;;;;5029271;28;20116;-73
2023/01/07 09:21:53;;;;;;;1.35;0.90;;;;;;;;;;5027790;28;20026;-83
2023/01/07 09:24:19;;;;;;;0.80;0.80;;;;;;;;;;5028795;28;20037;-77
2023/01/07 09:26:45;;;;;;;0.85;0.85;;;;;;;;;;5029076;28;20818;-75
2023/01/07 09:29:11;;;;;;;1.80;0.80;;;;;;;;;;5025973;28;20392;-78
2023/01/07 09:31:37;;;;;;;1.02;0.88;;;;;;;;;;5024094;28;20415;-74
2023/01/07 09:34:03;;;;;;;4.60;0.80;;;;;;;;;;5029533;28;20021;-74
2023/01/07 09:36:29;;;;;;;0.95;0.88;;;;;;;;;;5028902;28;20037;-73
2023/01/07 09:38:55;;;;;;;2.72;0.93;;;;;;;;;;5027555;28;20112;-75
2023/01/07 09:41:43;;;;;;;1.35;0.80;;;;;;;;;;5029189;28;20253;-75
2023/01/07 09:44:16;;;;;;;1.88;0.90;;;;;;;;;;5027773;28;20033;-75
2023/01/07 09:46:44;;;;;;;1.33;0.93;;;;;;;;;;5029303;28;20132;-75
2023/01/07 09:49:16;;;;;;;1.23;0.98;;;;;;;;;;5029933;28;20029;-75
2023/01/07 09:51:45;;;;;;;1.73;0.70;;;;;;;;;;5038687;28;20036;-75
2023/01/07 09:54:32;;;;;;;2.28;0.80;;;;;;;;;;5030800;28;20036;-75
2023/01/07 09:56:58;;;;;;;0.73;0.73;;;;;;;;;;5028458;28;20121;-75
2023/01/07 09:59:24;;;;;;;1.73;0.73;;;;;;;;;;5029552;28;20018;-75
2023/01/07 10:01:50;;;;;;;1.13;0.85;;;;;;;;;;5034307;28;20108;-76
2023/01/07 10:04:19;;;;;;;0.77;0.75;;;;;;;;;;5029381;28;20033;-75
2023/01/07 10:06:45;;;;;;;1.08;0.98;;;;;;;;;;5029301;28;20025;-75
2023/01/07 10:09:17;;;;;;;0.93;0.77;;;;;;;;;;5029356;28;20124;-75
2023/01/07 10:12:02;;;;;;;0.77;0.63;;;;;;;;;;5038057;28;20118;-76
2023/01/07 10:14:43;;;;;;;3.28;0.75;;;;;;;;;;5028649;28;20034;-75
2023/01/07 10:17:24;;;;;;;4.90;1.73;;;;;;;;;;5017122;28;20480;-76
2023/01/07 10:19:58;;;;;;;1.15;0.85;;;;;;;;;;5029021;28;20029;-75
2023/01/07 10:22:31;;;;;;;0.98;0.70;;;;;;;;;;5038194;28;20043;-76
2023/01/07 10:24:59;;;;;;;1.10;0.60;;;;;;;;;;5030840;28;20076;-76
2023/01/07 10:27:29;;;;;;;0.70;0.70;;;;;;;;;;5029117;28;20037;-76
2023/01/07 10:29:57;;;;;;;2.15;0.68;;;;;;;;;;5029043;28;20377;-76
2023/01/07 10:32:28;;;;;;;1.08;0.70;;;;;;;;;;5025173;28;20040;-76
2023/01/07 10:34:56;;;;;;;0.93;0.80;;;;;;;;;;5026015;28;20044;-76
2023/01/07 10:37:32;;;;;;;1.90;0.95;;;;;;;;;;5027204;28;20083;-76
2023/01/07 10:40:10;;;;;;;1.95;0.80;;;;;;;;;;5025847;28;20048;-77
2023/01/07 10:42:38;;;;;;;1.13;0.75;;;;;;;;;;5025630;28;20029;-77
2023/01/07 10:45:10;;;;;;;0.55;0.52;;;;;;;;;;5026912;28;20075;-79
2023/01/07 10:47:44;;;;;;;2.97;0.73;;;;;;;;;;5025089;28;20041;-77
2023/01/07 10:50:28;;;;;;;1.15;0.80;;;;;;;;;;5024044;28;20025;-75
2023/01/07 10:53:07;;;;;;;0.95;0.70;;;;;;;;;;5028930;28;20132;-83
2023/01/07 10:55:42;;;;;;;0.98;0.60;;;;;;;;;;5029492;28;20033;-76
2023/01/07 10:58:10;;;;;;;0.60;0.57;;;;;;;;;;5027713;28;20029;-76
2023/01/07 11:00:36;;;;;;;0.80;0.70;;;;;;;;;;5026212;28;20030;-74
2023/01/07 11:03:02;;;;;;;1.25;0.60;;;;;;;;;;5026479;28;20082;-83
2023/01/07 11:05:38;;;;;;;0.60;0.60;;;;;;;;;;5023088;28;20033;-77
2023/01/07 11:08:07;;;;;;;0.70;0.68;;;;;;;;;;5023241;28;20033;-79
2023/01/07 11:10:35;;;;;;;0.55;0.52;;;;;;;;;;5024383;28;20037;-80
2023/01/07 11:13:06;;;;;;;0.73;0.70;;;;;;;;;;5025540;28;20120;-78
2023/01/07 11:15:36;;;;;;;0.70;0.70;;;;;;;;;;5032957;28;20017;-78
2023/01/07 11:18:05;;;;;;;0.90;0.80;;;;;;;;;;5025180;28;20041;-79
2023/01/07 11:20:40;;;;;;;1.75;0.70;;;;;;;;;;5021552;28;20115;-79
2023/01/07 11:23:27;;;;;;;1.35;0.90;;;;;;;;;;5028275;28;20029;-79
2023/01/07 11:25:54;;;;;;;0.75;0.75;;;;;;;;;;5027113;28;20388;-79
2023/01/07 11:28:21;;;;;;;1.10;1.00;;;;;;;;;;5033935;28;20527;-79
2023/01/07 11:31:00;;;;;;;0.77;0.60;;;;;;;;;;5033547;28;20032;-79
2023/01/07 11:33:46;;;;;;;0.88;0.70;;;;;;;;;;5028787;28;20036;-78
2023/01/07 11:36:12;;;;;;;0.63;0.60;;;;;;;;;;5022398;28;20041;-80
2023/01/07 11:38:39;;;;;;;1.23;0.70;;;;;;;;;;5026362;28;20674;-80
2023/01/07 11:41:19;;;;;;;2.70;0.63;;;;;;;;;;5025045;28;20108;-79
2023/01/07 11:43:48;;;;;;;1.15;0.90;;;;;;;;;;5027177;28;20025;-79
2023/01/07 11:46:14;;;;;;;1.05;0.60;;;;;;;;;;5033808;28;20033;-80
2023/01/07 11:48:48;;;;;;;6.05;2.90;;;;;;;;;;5040834;28;20124;-80
2023/01/07 11:51:14;;;;;;;2.42;0.90;;;;;;;;;;5026988;28;20053;-80
2023/01/07 11:53:51;;;;;;;1.63;1.10;;;;;;;;;;5027907;28;20033;-80
2023/01/07 11:56:20;;;;;;;1.58;0.90;;;;;;;;;;5027095;28;20033;-79
2023/01/07 11:58:48;;;;;;;1.48;1.05;;;;;;;;;;5027655;28;20112;-79
2023/01/07 12:01:16;;;;;;;0.80;0.80;;;;;;;;;;5031468;28;20071;-79
2023/01/07 12:03:43;;;;;;;2.42;1.40;;;;;;;;;;5028151;28;20094;-79
2023/01/07 12:06:18;;;;;;;2.70;0.95;;;;;;;;;;5025373;28;20095;-79
2023/01/07 12:08:50;;;;;;;1.38;1.02;;;;;;;;;;5025051;28;20040;-79
2023/01/07 12:11:16;;;;;;;3.28;1.33;;;;;;;;;;5030881;28;20033;-79
2023/01/07 12:13:47;;;;;;;3.10;1.00;;;;;;;;;;5033351;28;20477;-79
2023/01/07 12:16:13;;;;;;;6.45;3.22;;;;;;;;;;5028097;28;20025;-80
2023/01/07 12:18:39;;;;;;;3.40;1.35;;;;;;;;;;5030735;28;20071;-79
2023/01/07 12:21:21;;;;;;;2.15;1.23;;;;;;;;;;5031844;28;20033;-78
2023/01/07 12:24:05;;;;;;;2.05;1.48;;;;;;;;;;5030736;28;20419;-79
2023/01/07 12:26:34;;;;;;;3.83;1.95;;;;;;;;;;5030939;28;20386;-79
2023/01/07 12:29:07;;;;;;;1.52;1.20;;;;;;;;;;5033305;28;20107;-79
2023/01/07 12:31:55;;;;;;;1.98;1.00;;;;;;;;;;5030614;28;20037;-79
2023/01/07 12:34:27;;;;;;;2.03;1.20;;;;;;;;;;5026858;28;20034;-79
2023/01/07 12:36:59;;;;;;;5.03;2.50;;;;;;;;;;5022204;28;20128;-79
2023/01/07 12:39:35;;;;;;;4.55;1.45;;;;;;;;;;5030651;28;20990;-79
2023/01/07 12:42:22;;;;;;;1.92;1.23;;;;;;;;;;5037249;28;20316;-79
2023/01/07 12:44:59;;;;;;;3.30;1.75;;;;;;;;;;5029230;28;20037;-79
2023/01/07 12:47:49;;;;;;;3.30;1.70;;;;;;;;;;5025661;28;20124;-79
2023/01/07 12:50:32;;;;;;;3.20;1.50;;;;;;;;;;5028448;28;20036;-79
2023/01/07 12:53:16;;;;;;;3.03;1.55;;;;;;;;;;5036609;28;20112;-79
2023/01/07 12:55:57;;;;;;;2.75;1.40;;;;;;;;;;5031851;28;20056;-78
2023/01/07 12:58:39;;;;;;;2.42;1.08;;;;;;;;;;5029788;28;20084;-79
2023/01/07 13:01:05;;;;;;;;;;;;;;;;;;5019622;28;20026;-79
2023/01/07 13:03:37;;;;;;;1.70;1.35;;;;;;;;;;5029519;28;19975;-78
2023/01/07 13:06:21;;;;;;;1.52;1.05;;;;;;;;;;5026484;28;20035;-79
2023/01/07 13:08:56;;;;;;;2.00;1.00;;;;;;;;;;5030501;28;20037;-78
2023/01/07 13:14:31;;;;;;;1.60;1.02;;;;;;;;;;5016979;28;20045;-79
2023/01/07 13:17:05;;;;;;;1.58;1.30;;;;;;;;;;5029703;28;20126;-78
2023/01/07 13:19:31;;;;;;;1.33;1.02;;;;;;;;;;5029228;28;20033;-79
2023/01/07 13:21:57;;;;;;;2.50;1.27;;;;;;;;;;5029297;28;20409;-78
2023/01/07 13:24:38;;;;;;;2.88;1.13;;;;;;;;;;5029698;28;20455;-79
2023/01/07 13:27:10;;;;;;;1.73;1.00;;;;;;;;;;5030333;28;20151;-78
2023/01/07 13:29:42;;;;;;;1.85;1.00;;;;;;;;;;5028098;28;20687;-78
2023/01/07 13:32:21;;;;;;;1.58;1.00;;;;;;;;;;5038795;28;20026;-79
2023/01/07 13:34:57;;;;;;;2.28;1.30;;;;;;;;;;5029401;28;20054;-78
2023/01/07 13:37:42;;;;;;;1.60;1.00;;;;;;;;;;5024030;28;20037;-79
2023/01/07 13:40:24;;;;;;;1.33;0.90;;;;;;;;;;5028242;28;20083;-79
2023/01/07 13:43:09;;;;;;;1.98;1.15;;;;;;;;;;5030171;28;20025;-78
2023/01/07 13:45:35;;;;;;;1.75;1.20;;;;;;;;;;5029698;28;20021;-79
2023/01/07 13:48:04;;;;;;;1.80;1.10;;;;;;;;;;5027464;28;20087;-79
2023/01/07 13:50:42;;;;;;;2.65;1.40;;;;;;;;;;5028534;28;20404;-79
2023/01/07 13:53:14;;;;;;;1.27;0.90;;;;;;;;;;5030911;28;20022;-78
2023/01/07 13:55:42;;;;;;;2.15;1.00;;;;;;;;;;5039233;28;20043;-78
2023/01/07 13:58:26;;;;;;;1.42;1.00;;;;;;;;;;5026844;28;20017;-79
2023/01/07 14:01:06;;;;;;;2.17;1.00;;;;;;;;;;5032098;28;20032;-79
2023/01/07 14:03:44;;;;;;;1.75;1.00;;;;;;;;;;5028214;28;20042;-78
2023/01/07 14:06:19;;;;;;;1.08;0.93;;;;;;;;;;5030128;28;20026;-79
2023/01/07 14:08:46;;;;;;;1.88;1.05;;;;;;;;;;5041988;28;20245;-79
2023/01/07 14:11:13;;;;;;;1.67;1.10;;;;;;;;;;5030890;28;20396;-79
2023/01/07 14:13:42;;;;;;;1.73;1.02;;;;;;;;;;5037857;28;20030;-79
2023/01/07 14:16:20;;;;;;;0.95;0.80;;;;;;;;;;5029061;28;20472;-79
2023/01/07 14:19:00;;;;;;;1.50;0.73;;;;;;;;;;5027971;28;20037;-79
2023/01/07 14:21:26;;;;;;;1.20;0.90;;;;;;;;;;5034262;28;20138;-78
2023/01/07 14:24:14;;;;;;;1.23;0.88;;;;;;;;;;5026050;28;20038;-74
2023/01/07 14:26:46;;;;;;;0.82;0.82;;;;;;;;;;5025272;28;20107;-85
2023/01/07 14:29:21;;;;;;;1.67;0.95;;;;;;;;;;5024614;28;20029;-75
2023/01/07 14:31:49;;;;;;;1.00;0.82;;;;;;;;;;5028407;28;20030;-75
2023/01/07 14:34:22;;;;;;;1.60;0.77;;;;;;;;;;5023224;28;20029;-72
2023/01/07 14:37:03;;;;;;;2.40;1.00;;;;;;;;;;5027857;28;20095;-78
2023/01/07 14:39:43;;;;;;;1.05;0.90;;;;;;;;;;5011031;28;20492;-74
2023/01/07 14:42:15;;;;;;;1.58;0.93;;;;;;;;;;5033576;28;20032;-75
2023/01/07 14:44:41;;;;;;;0.93;0.77;;;;;;;;;;5025825;28;20035;-73
2023/01/07 14:47:10;;;;;;;1.02;0.90;;;;;;;;;;5029841;28;20400;-74
2023/01/07 14:49:39;;;;;;;1.40;0.90;;;;;;;;;;5028099;28;20444;-72
2023/01/07 14:52:14;;;;;;;1.75;0.90;;;;;;;;;;5023521;28;20455;-73
2023/01/07 14:54:48;;;;;;;2.85;0.77;;;;;;;;;;5027752;28;20033;-73
2023/01/07 14:57:17;;;;;;;1.20;0.93;;;;;;;;;;5023803;28;20615;-74
2023/01/07 14:59:46;;;;;;;1.20;1.02;;;;;;;;;;5030328;28;20080;-73
2023/01/07 15:02:31;;;;;;;2.08;0.90;;;;;;;;;;5028947;28;20049;-76
2023/01/07 15:05:01;;;;;;;2.15;1.10;;;;;;;;;;5034232;28;20419;-73